Time;durP1;ratioP1;P1;durP2;ratioP2;P2;SDS_P1;SDS_P2;PMS_P1;PMS_P2;Temp;Humidity;BMP_temperature;BMP_pressure;BME280_temperature;BME280_humidity;BME280_pressure;Samples;Min_cycle;Max_cycle;Signal;HPM_P1;HPM_P2
2022/12/22 03:28:08;;;;;;;20.73;13.07;;;11.80;99.90;;;;;;5059122;28;20029;-78
2022/12/22 03:30:34;;;;;;;17.10;11.30;;;11.80;99.90;;;;;;5071879;28;20013;-77
2022/12/22 03:33:00;;;;;;;11.80;9.48;;;11.80;99.90;;;;;;5071238;28;20020;-79
2022/12/22 03:35:26;;;;;;;174.82;18.13;;;11.80;99.90;;;;;;5071892;28;20431;-77
2022/12/22 03:37:51;;;;;;;838.42;48.53;;;11.70;99.90;;;;;;5071601;28;20028;-77
2022/12/22 03:40:17;;;;;;;16.85;10.38;;;11.80;99.90;;;;;;5071354;28;20130;-77
2022/12/22 03:48:12;;;;;;;226.77;15.70;;;11.80;99.90;;;;;;5071269;28;20036;-77
2022/12/22 03:50:38;;;;;;;155.38;12.90;;;11.70;99.90;;;;;;5071059;28;20021;-77
2022/12/22 03:53:04;;;;;;;17.45;8.77;;;11.70;99.90;;;;;;5072302;28;20495;-79
2022/12/22 03:55:29;;;;;;;8.93;7.88;;;11.80;99.90;;;;;;5071077;28;20032;-79
2022/12/22 03:57:55;;;;;;;10.55;9.38;;;11.60;99.90;;;;;;5071197;28;20041;-78
2022/12/22 04:00:21;;;;;;;10.85;7.50;;;11.70;99.90;;;;;;5071378;28;20058;-79
2022/12/22 04:02:47;;;;;;;16.40;7.90;;;11.60;99.90;;;;;;5069804;28;20032;-79
2022/12/22 04:05:13;;;;;;;187.57;20.35;;;11.60;99.90;;;;;;5071713;28;20035;-77
2022/12/22 04:07:38;;;;;;;129.10;12.02;;;11.60;99.90;;;;;;5070999;28;20477;-80
2022/12/22 04:12:53;;;;;;;22.25;8.55;;;11.50;99.90;;;;;;5071346;28;20362;-80
2022/12/22 04:15:19;;;;;;;21.80;8.32;;;11.20;99.90;;;;;;5071245;28;20040;-78
2022/12/22 04:17:45;;;;;;;9.63;8.57;;;10.90;99.90;;;;;;5070914;28;20033;-80
2022/12/22 04:20:11;;;;;;;26.05;9.68;;;10.90;99.90;;;;;;5069734;28;20098;-77
2022/12/22 04:22:37;;;;;;;21.80;10.95;;;11.10;99.90;;;;;;5070492;28;20036;-78
2022/12/22 04:25:03;;;;;;;15.90;10.82;;;11.20;99.90;;;;;;5071487;28;20104;-78
2022/12/22 04:27:29;;;;;;;31.52;10.88;;;11.30;99.90;;;;;;5071543;28;20059;-78
2022/12/22 04:29:54;;;;;;;829.92;58.60;;;11.30;99.90;;;;;;5074374;28;20087;-79
2022/12/22 04:32:20;;;;;;;57.25;13.35;;;11.50;99.90;;;;;;5075019;28;20036;-77
2022/12/22 04:34:46;;;;;;;64.80;14.90;;;11.40;99.90;;;;;;5075279;28;20050;-77
2022/12/22 04:37:11;;;;;;;27.38;14.38;;;11.30;99.90;;;;;;5073826;28;20021;-78
2022/12/22 04:39:37;;;;;;;28.73;14.43;;;11.00;99.90;;;;;;5074586;28;20421;-78
2022/12/22 04:42:03;;;;;;;59.17;13.80;;;11.00;99.90;;;;;;5073001;28;20079;-81
2022/12/22 04:44:28;;;;;;;99.10;16.10;;;11.10;99.90;;;;;;5074294;28;20052;-78
2022/12/22 04:46:54;;;;;;;184.13;17.20;;;11.20;99.90;;;;;;5073863;28;20396;-81
2022/12/22 04:49:20;;;;;;;127.30;14.65;;;11.00;99.90;;;;;;5074950;28;20027;-79
2022/12/22 04:51:46;;;;;;;73.88;12.55;;;11.10;99.90;;;;;;5074769;28;20028;-80
2022/12/22 04:54:11;;;;;;;85.72;11.52;;;11.00;99.90;;;;;;5074997;28;20016;-79
2022/12/22 04:56:37;;;;;;;70.70;11.55;;;10.80;99.90;;;;;;5073147;28;20028;-79
2022/12/22 04:59:03;;;;;;;121.05;12.13;;;10.60;99.90;;;;;;5074845;28;20029;-79
2022/12/22 05:01:28;;;;;;;24.90;10.70;;;10.50;99.90;;;;;;5074198;28;20396;-79
2022/12/22 05:03:54;;;;;;;16.73;11.07;;;10.40;99.90;;;;;;5073317;28;20037;-80
2022/12/22 05:06:20;;;;;;;16.48;12.63;;;10.40;99.90;;;;;;5074594;28;20108;-80
2022/12/22 05:08:46;;;;;;;25.08;16.48;;;10.30;99.90;;;;;;5074715;28;20461;-80
2022/12/22 05:11:11;;;;;;;25.48;15.65;;;10.40;99.90;;;;;;5074257;28;20071;-80
2022/12/22 05:13:37;;;;;;;28.88;17.95;;;10.30;99.90;;;;;;5074447;28;20063;-79
2022/12/22 05:16:11;;;;;;;29.17;18.88;;;10.30;99.90;;;;;;5074226;28;20027;-80
2022/12/22 05:18:39;;;;;;;33.80;21.88;;;10.40;99.90;;;;;;5074389;28;20020;-79
2022/12/22 05:21:17;;;;;;;39.35;23.13;;;10.40;99.90;;;;;;5073058;28;20477;-79
2022/12/22 05:23:43;;;;;;;44.70;25.50;;;10.30;99.90;;;;;;5073907;28;20043;-79
2022/12/22 05:26:10;;;;;;;48.92;27.75;;;10.10;99.90;;;;;;5074210;28;20048;-80
2022/12/22 05:28:36;;;;;;;55.63;29.88;;;10.20;99.90;;;;;;5073932;28;20039;-79
2022/12/22 05:31:04;;;;;;;53.20;30.52;;;10.20;99.90;;;;;;5072797;28;20443;-79
2022/12/22 05:33:30;;;;;;;65.03;34.15;;;10.20;99.90;;;;;;5074079;28;20051;-79
2022/12/22 05:35:56;;;;;;;61.25;33.95;;;10.10;99.90;;;;;;5073460;28;20029;-78
2022/12/22 05:38:22;;;;;;;57.33;32.63;;;10.10;99.90;;;;;;5067370;28;20021;-79
2022/12/22 05:40:47;;;;;;;55.72;31.60;;;10.10;99.90;;;;;;5053429;28;20048;-80
2022/12/22 05:43:13;;;;;;;52.92;31.38;;;10.00;99.90;;;;;;5054910;28;20124;-80
2022/12/22 05:45:39;;;;;;;49.75;29.65;;;10.00;99.90;;;;;;5053859;28;20041;-80
2022/12/22 05:48:05;;;;;;;49.65;29.90;;;10.20;99.90;;;;;;5053885;28;20055;-79
2022/12/22 05:50:31;;;;;;;50.58;31.02;;;10.20;99.90;;;;;;5052842;28;20025;-79
2022/12/22 05:53:03;;;;;;;50.85;30.90;;;10.30;99.90;;;;;;5057009;28;20536;-79
2022/12/22 05:55:29;;;;;;;52.78;31.17;;;10.30;99.90;;;;;;5054799;28;20212;-79
2022/12/22 05:57:55;;;;;;;56.50;33.17;;;10.30;99.90;;;;;;5054974;28;20334;-78
2022/12/22 06:00:21;;;;;;;55.50;33.30;;;10.20;99.90;;;;;;5054667;28;20746;-79
2022/12/22 06:02:47;;;;;;;60.42;33.97;;;10.10;99.90;;;;;;5067713;28;20035;-79
2022/12/22 06:05:14;;;;;;;65.07;35.85;;;10.10;99.90;;;;;;5063267;28;20104;-79
2022/12/22 06:07:40;;;;;;;65.38;34.80;;;10.20;99.90;;;;;;5058678;28;20033;-79
2022/12/22 06:10:08;;;;;;;66.53;34.50;;;10.10;99.90;;;;;;5072487;28;20017;-80
2022/12/22 06:12:33;;;;;;;70.20;35.05;;;10.00;99.90;;;;;;5075539;28;20020;-79
2022/12/22 06:14:59;;;;;;;69.00;36.25;;;10.10;99.90;;;;;;5075835;28;20025;-79
2022/12/22 06:17:25;;;;;;;68.13;36.60;;;10.00;99.90;;;;;;5073917;28;20070;-79
2022/12/22 06:19:51;;;;;;;68.28;35.45;;;10.00;99.90;;;;;;5073902;28;20028;-79
2022/12/22 06:22:17;;;;;;;69.20;34.20;;;9.90;99.90;;;;;;5073443;28;20029;-81
2022/12/22 06:24:42;;;;;;;68.38;33.65;;;9.90;99.90;;;;;;5073453;28;20040;-80
2022/12/22 06:27:09;;;;;;;71.97;33.40;;;10.00;99.90;;;;;;5072545;28;20127;-81
2022/12/22 06:29:35;;;;;;;67.07;32.15;;;10.00;99.90;;;;;;5073228;28;20032;-80
2022/12/22 06:32:01;;;;;;;65.95;32.50;;;10.10;99.90;;;;;;5072660;28;20016;-80
2022/12/22 06:34:27;;;;;;;66.90;32.58;;;10.00;99.90;;;;;;5073400;28;20031;-80
2022/12/22 06:36:53;;;;;;;62.72;32.30;;;9.90;99.90;;;;;;5073301;28;20024;-80
2022/12/22 06:39:19;;;;;;;69.95;33.00;;;9.80;99.90;;;;;;5073100;28;20117;-80
2022/12/22 06:44:29;;;;;;;72.45;33.42;;;9.90;99.90;;;;;;5073519;28;20040;-80
2022/12/22 06:46:55;;;;;;;69.25;32.78;;;9.80;99.90;;;;;;5074046;28;20021;-79
2022/12/22 06:49:22;;;;;;;75.28;35.88;;;9.90;99.90;;;;;;5073283;28;20025;-80
2022/12/22 06:51:48;;;;;;;74.93;35.03;;;9.80;99.90;;;;;;5073681;28;20020;-79
2022/12/22 06:54:14;;;;;;;83.72;37.70;;;9.80;99.90;;;;;;5073515;28;20043;-79
2022/12/22 06:56:40;;;;;;;84.18;37.40;;;9.80;99.90;;;;;;5073782;28;20027;-79
2022/12/22 06:59:06;;;;;;;83.55;37.72;;;9.80;99.90;;;;;;5073859;28;20029;-79
2022/12/22 07:01:32;;;;;;;87.38;38.40;;;9.80;99.90;;;;;;5073461;28;20024;-79
2022/12/22 07:03:58;;;;;;;85.38;36.75;;;9.70;99.90;;;;;;5074170;28;20036;-79
2022/12/22 07:06:23;;;;;;;85.88;37.95;;;9.80;99.90;;;;;;5074143;28;20373;-79
2022/12/22 07:08:49;;;;;;;80.10;35.35;;;9.80;99.90;;;;;;5074448;28;20384;-79
2022/12/22 07:11:16;;;;;;;82.53;37.03;;;9.70;99.90;;;;;;5072894;28;20058;-79
2022/12/22 07:13:42;;;;;;;78.28;35.60;;;10.00;99.90;;;;;;5072930;28;20446;-79
2022/12/22 07:16:09;;;;;;;90.07;38.05;;;9.80;99.90;;;;;;5053930;28;20037;-78
2022/12/22 07:18:37;;;;;;;86.38;36.90;;;9.70;99.90;;;;;;5053471;28;20029;-78
2022/12/22 07:21:06;;;;;;;91.07;38.42;;;9.70;99.90;;;;;;5053640;28;20059;-78
2022/12/22 07:23:33;;;;;;;84.85;35.55;;;9.90;99.90;;;;;;5057081;28;20389;-78
2022/12/22 07:25:59;;;;;;;88.22;35.53;;;10.00;99.90;;;;;;5072188;28;20021;-78
2022/12/22 07:28:25;;;;;;;78.85;37.28;;;9.80;99.90;;;;;;5072689;28;20056;-79
2022/12/22 07:30:52;;;;;;;79.05;35.75;;;9.60;99.90;;;;;;5072553;28;20099;-78
2022/12/22 07:33:18;;;;;;;72.88;34.90;;;9.50;99.90;;;;;;5072232;28;20078;-78
2022/12/22 07:35:44;;;;;;;80.13;36.55;;;9.50;99.90;;;;;;5072548;28;20028;-78
2022/12/22 07:38:10;;;;;;;81.43;34.83;;;9.50;99.90;;;;;;5072241;28;20040;-78
2022/12/22 07:40:35;;;;;;;85.28;35.25;;;9.40;99.90;;;;;;5072167;28;20020;-79
2022/12/22 07:43:02;;;;;;;85.05;35.53;;;9.60;99.90;;;;;;5072055;28;20032;-79
2022/12/22 07:45:27;;;;;;;76.68;34.75;;;9.60;99.90;;;;;;5070709;28;20476;-79
2022/12/22 07:48:00;;;;;;;86.25;36.30;;;9.40;99.90;;;;;;5071843;28;20024;-79
2022/12/22 07:50:27;;;;;;;81.18;36.42;;;9.30;99.90;;;;;;5071876;28;20029;-79
2022/12/22 07:52:56;;;;;;;81.90;35.55;;;9.30;99.90;;;;;;5071042;28;20067;-79
2022/12/22 07:55:28;;;;;;;72.50;34.45;;;9.10;99.90;;;;;;5071915;28;20044;-80
2022/12/22 07:57:54;;;;;;;76.03;34.80;;;9.10;99.90;;;;;;5072241;28;20024;-79
2022/12/22 08:00:22;;;;;;;96.03;39.60;;;9.00;99.90;;;;;;5071778;28;20036;-79
2022/12/22 08:02:57;;;;;;;77.05;37.40;;;9.10;99.90;;;;;;5055641;28;20044;-79
2022/12/22 08:05:24;;;;;;;80.65;37.67;;;9.00;99.90;;;;;;5058669;28;20519;-77
2022/12/22 08:07:50;;;;;;;78.18;35.92;;;8.80;99.90;;;;;;5056432;28;20063;-78
2022/12/22 08:10:18;;;;;;;82.53;38.15;;;8.80;99.90;;;;;;5068802;28;20052;-79
2022/12/22 08:12:44;;;;;;;86.53;39.17;;;8.80;99.90;;;;;;5075548;28;20035;-78
2022/12/22 08:15:10;;;;;;;104.70;40.53;;;8.70;99.90;;;;;;5075619;28;20049;-77
2022/12/22 08:17:36;;;;;;;113.07;38.30;;;8.70;99.90;;;;;;5075634;28;20082;-78
2022/12/22 08:20:02;;;;;;;154.30;39.50;;;8.70;99.90;;;;;;5075624;28;20089;-78
2022/12/22 08:22:29;;;;;;;181.55;40.30;;;8.60;99.90;;;;;;5074344;28;20051;-81
2022/12/22 08:24:55;;;;;;;161.23;40.97;;;8.60;99.90;;;;;;5075468;28;20457;-78
2022/12/22 08:27:31;;;;;;;288.65;44.90;;;8.60;99.90;;;;;;5074721;28;20052;-78
2022/12/22 08:29:59;;;;;;;193.70;37.45;;;8.60;99.90;;;;;;5074641;28;20029;-78
2022/12/22 08:32:25;;;;;;;96.68;29.10;;;8.50;99.90;;;;;;5074573;28;20492;-79
2022/12/22 08:34:51;;;;;;;136.05;26.73;;;8.50;99.90;;;;;;5074970;28;20040;-79
2022/12/22 08:37:22;;;;;;;90.03;21.80;;;8.50;99.90;;;;;;5074457;28;20461;-79
2022/12/22 08:39:51;;;;;;;130.40;31.60;;;8.40;99.90;;;;;;5075191;28;20020;-79
2022/12/22 08:42:20;;;;;;;69.68;24.23;;;8.50;99.90;;;;;;5074492;28;20028;-78
2022/12/22 08:44:50;;;;;;;133.43;28.25;;;8.50;99.90;;;;;;5075285;28;20476;-78
2022/12/22 08:47:16;;;;;;;126.30;29.17;;;8.50;99.90;;;;;;5069078;28;20086;-78
2022/12/22 08:49:42;;;;;;;119.78;29.60;;;8.50;99.90;;;;;;5071764;28;20032;-78
2022/12/22 08:52:08;;;;;;;110.45;26.95;;;8.50;99.90;;;;;;5075190;28;20025;-79
2022/12/22 08:54:33;;;;;;;128.75;36.80;;;8.50;99.90;;;;;;5075119;28;20028;-80
2022/12/22 08:56:59;;;;;;;100.35;34.83;;;8.60;99.90;;;;;;5075033;28;20031;-80
2022/12/22 08:59:25;;;;;;;100.75;34.75;;;8.70;99.90;;;;;;5075163;28;20032;-80
2022/12/22 09:01:50;;;;;;;107.55;40.40;;;8.70;99.90;;;;;;5074853;28;20021;-79
2022/12/22 09:04:19;;;;;;;108.55;39.05;;;8.80;99.90;;;;;;5073798;28;20040;-79
2022/12/22 09:06:45;;;;;;;118.00;41.15;;;8.70;99.90;;;;;;5074364;28;20017;-80
2022/12/22 09:09:12;;;;;;;97.30;38.40;;;8.90;99.90;;;;;;5074933;28;20410;-79
2022/12/22 09:11:39;;;;;;;102.07;38.47;;;8.80;99.90;;;;;;5074808;28;20024;-80
2022/12/22 09:14:05;;;;;;;99.88;39.08;;;8.80;99.90;;;;;;5074784;28;20013;-80
2022/12/22 09:16:32;;;;;;;110.25;40.22;;;8.80;99.90;;;;;;5074704;28;20032;-80
2022/12/22 09:18:59;;;;;;;119.38;43.00;;;8.90;99.90;;;;;;5074835;28;20028;-79
2022/12/22 09:21:25;;;;;;;97.60;36.65;;;8.90;99.90;;;;;;5072866;28;20025;-80
2022/12/22 09:23:51;;;;;;;93.00;34.50;;;8.80;99.90;;;;;;5074606;28;20447;-79
2022/12/22 09:26:19;;;;;;;111.95;43.58;;;8.80;99.90;;;;;;5074637;28;20017;-80
2022/12/22 09:28:45;;;;;;;116.63;44.70;;;8.90;99.90;;;;;;5074672;28;20385;-80
2022/12/22 09:31:11;;;;;;;125.22;52.10;;;9.00;99.90;;;;;;5074516;28;20017;-79
2022/12/22 09:33:37;;;;;;;129.45;53.95;;;8.90;99.90;;;;;;5074463;28;20082;-80
2022/12/22 09:36:12;;;;;;;139.60;55.45;;;9.00;99.90;;;;;;5064021;28;20025;-79
2022/12/22 09:38:39;;;;;;;127.68;48.65;;;9.10;99.90;;;;;;5063786;28;20028;-79
2022/12/22 09:41:25;;;;;;;96.82;45.58;;;9.10;99.90;;;;;;5074675;28;20074;-79
2022/12/22 09:43:51;;;;;;;73.55;42.60;;;9.20;99.90;;;;;;5074269;28;20099;-80
2022/12/22 09:46:24;;;;;;;89.43;41.58;;;9.00;99.90;;;;;;5074070;28;20052;-79
2022/12/22 09:48:50;;;;;;;71.07;34.58;;;9.10;99.90;;;;;;5073220;28;20037;-79
2022/12/22 09:51:17;;;;;;;66.88;35.75;;;9.10;99.90;;;;;;5073672;28;20473;-79
2022/12/22 09:53:45;;;;;;;56.58;29.63;;;9.10;99.90;;;;;;5074257;28;20066;-79
2022/12/22 09:56:16;;;;;;;56.58;34.10;;;9.10;99.90;;;;;;5072640;28;20123;-79
2022/12/22 09:58:42;;;;;;;57.23;29.37;;;9.10;99.90;;;;;;5060656;28;20033;-80
2022/12/22 10:01:26;;;;;;;54.08;31.55;;;9.10;99.90;;;;;;5073846;28;20028;-80
2022/12/22 10:04:10;;;;;;;54.85;33.55;;;9.20;99.90;;;;;;5072551;28;20048;-81
2022/12/22 10:06:46;;;;;;;49.13;30.98;;;9.30;99.90;;;;;;5072344;28;20028;-80
2022/12/22 10:09:23;;;;;;;38.92;22.02;;;9.30;99.90;;;;;;5072748;28;20033;-79
2022/12/22 10:11:54;;;;;;;43.83;24.88;;;9.10;99.90;;;;;;5073540;28;20035;-79
2022/12/22 10:14:24;;;;;;;41.72;25.63;;;9.20;99.90;;;;;;5072692;28;20028;-81
2022/12/22 10:17:17;;;;;;;42.05;25.23;;;9.40;99.90;;;;;;5059281;28;20120;-80
2022/12/22 10:19:43;;;;;;;33.13;22.85;;;9.20;99.90;;;;;;5073450;28;20105;-80
2022/12/22 10:22:36;;;;;;;42.90;26.05;;;9.30;99.90;;;;;;5073445;28;20040;-80
2022/12/22 10:25:05;;;;;;;43.17;26.98;;;9.30;99.90;;;;;;5073393;28;20040;-80
2022/12/22 10:27:34;;;;;;;38.78;26.88;;;9.30;99.90;;;;;;5072588;28;20108;-82
2022/12/22 10:30:21;;;;;;;42.65;25.90;;;9.40;99.90;;;;;;5073697;28;20095;-82
2022/12/22 10:33:12;;;;;;;44.60;27.17;;;9.40;99.90;;;;;;5060226;28;20055;-83
2022/12/22 10:35:44;;;;;;;43.97;23.92;;;9.40;99.90;;;;;;5073553;28;20064;-81
2022/12/22 10:38:38;;;;;;;43.00;25.38;;;9.40;99.90;;;;;;5073175;28;20040;-82
2022/12/22 10:41:19;;;;;;;39.85;26.88;;;9.40;99.90;;;;;;5071935;28;20488;-82
2022/12/22 10:43:57;;;;;;;47.15;29.17;;;9.50;99.90;;;;;;5073383;28;20468;-79
2022/12/22 10:46:37;;;;;;;57.67;34.20;;;9.40;99.90;;;;;;5071805;28;20465;-83
2022/12/22 10:49:20;;;;;;;59.00;37.30;;;9.30;99.90;;;;;;5071513;28;20032;-82
2022/12/22 10:51:50;;;;;;;62.78;39.65;;;9.30;99.90;;;;;;5071912;28;20033;-82
2022/12/22 10:54:31;;;;;;;66.70;40.42;;;9.40;99.90;;;;;;5072845;28;20020;-83
2022/12/22 10:57:09;;;;;;;63.13;36.88;;;9.40;99.90;;;;;;5073204;28;20044;-83
2022/12/22 10:59:48;;;;;;;57.33;36.95;;;9.40;99.90;;;;;;5072949;28;20115;-82
2022/12/22 11:02:26;;;;;;;56.70;33.55;;;9.30;99.90;;;;;;5072582;28;20037;-82
2022/12/22 11:04:54;;;;;;;57.38;34.00;;;9.40;99.90;;;;;;5072747;28;20047;-82
2022/12/22 11:07:20;;;;;;;54.70;33.70;;;9.40;99.90;;;;;;5072542;28;20074;-82
2022/12/22 11:09:46;;;;;;;58.35;35.10;;;9.50;99.90;;;;;;5072655;28;20036;-83
2022/12/22 11:12:26;;;;;;;49.78;33.70;;;9.60;99.90;;;;;;5072738;28;20077;-82
2022/12/22 11:15:22;;;;;;;53.22;33.67;;;9.90;99.90;;;;;;5072720;28;20528;-83
2022/12/22 11:17:57;;;;;;;52.58;33.45;;;9.80;99.90;;;;;;5062256;28;20032;-82
2022/12/22 11:20:35;;;;;;;57.38;33.10;;;9.60;99.90;;;;;;5072642;28;20028;-82
2022/12/22 11:23:38;;;;;;;51.95;30.83;;;9.80;99.90;;;;;;5072396;28;20492;-83
2022/12/22 11:26:03;;;;;;;;;;;9.90;99.90;;;;;;5060827;28;20023;-82
2022/12/22 11:28:44;;;;;;;40.33;27.08;;;10.00;99.90;;;;;;5072800;28;19912;-83
2022/12/22 11:31:27;;;;;;;45.35;25.38;;;10.00;99.90;;;;;;5059945;28;20032;-82
2022/12/22 11:34:20;;;;;;;36.22;24.38;;;10.20;99.90;;;;;;5071280;28;20035;-82
2022/12/22 11:37:04;;;;;;;32.45;20.38;;;10.00;99.90;;;;;;5060697;28;20036;-82
2022/12/22 11:39:57;;;;;;;30.20;18.70;;;9.90;99.90;;;;;;5056993;28;20488;-79
2022/12/22 11:42:22;;;;;;;37.08;21.85;;;9.70;99.90;;;;;;5076759;28;20052;-82
2022/12/22 11:45:06;;;;;;;33.50;21.63;;;9.80;99.90;;;;;;5076443;28;20039;-82
2022/12/22 11:47:45;;;;;;;31.05;21.52;;;9.90;99.90;;;;;;5076938;28;20032;-78
2022/12/22 11:50:37;;;;;;;34.03;19.67;;;10.10;99.90;;;;;;5076172;28;20503;-79
2022/12/22 11:53:30;;;;;;;28.13;19.65;;;9.80;99.90;;;;;;5071301;28;20093;-79
2022/12/22 11:56:13;;;;;;;29.15;20.08;;;9.90;99.90;;;;;;5076183;28;20430;-78
2022/12/22 11:59:10;;;;;;;35.55;19.67;;;10.00;99.90;;;;;;5057783;28;20044;-78
2022/12/22 12:01:44;;;;;;;37.58;20.67;;;10.20;99.90;;;;;;5072102;28;20036;-79
2022/12/22 12:04:28;;;;;;;29.63;20.05;;;10.30;99.90;;;;;;5076115;28;20040;-79
2022/12/22 12:07:08;;;;;;;28.00;18.45;;;10.30;99.90;;;;;;5075783;28;20098;-78
2022/12/22 12:10:11;;;;;;;28.20;19.00;;;10.20;99.90;;;;;;5075915;28;20025;-78
2022/12/22 12:12:43;;;;;;;27.13;17.25;;;10.30;99.90;;;;;;5060748;28;20033;-79
2022/12/22 12:15:19;;;;;;;19.27;15.00;;;10.30;99.90;;;;;;5071221;28;20169;-78
2022/12/22 12:17:51;;;;;;;29.15;14.63;;;10.40;99.90;;;;;;5076066;28;20039;-80
2022/12/22 12:20:32;;;;;;;21.42;12.55;;;10.70;99.90;;;;;;5075673;28;20029;-79
2022/12/22 12:23:16;;;;;;;21.42;13.02;;;10.40;99.90;;;;;;5075852;28;20044;-79
2022/12/22 12:26:05;;;;;;;23.70;12.52;;;10.40;99.90;;;;;;5075673;28;20108;-80
2022/12/22 12:28:34;;;;;;;18.08;10.38;;;10.40;99.90;;;;;;5076295;28;20020;-79
2022/12/22 12:31:00;;;;;;;18.40;11.52;;;10.40;99.90;;;;;;5061774;28;20476;-80
2022/12/22 12:33:37;;;;;;;14.13;8.40;;;10.40;99.90;;;;;;5075554;28;20056;-80
2022/12/22 12:36:28;;;;;;;17.20;9.68;;;10.40;99.90;;;;;;5075283;28;20536;-79
2022/12/22 12:39:17;;;;;;;16.83;9.68;;;10.50;99.90;;;;;;5074240;28;20029;-79
2022/12/22 12:42:02;;;;;;;20.17;10.63;;;10.70;99.90;;;;;;5041232;28;20523;-80
2022/12/22 12:44:33;;;;;;;15.93;9.68;;;10.70;99.90;;;;;;5070600;28;20538;-79
2022/12/22 12:47:21;;;;;;;16.95;9.80;;;10.70;99.90;;;;;;5075368;28;20082;-83
2022/12/22 12:49:50;;;;;;;15.93;9.38;;;10.80;99.90;;;;;;5074801;28;20040;-82
2022/12/22 12:52:16;;;;;;;14.18;9.88;;;10.90;99.90;;;;;;5075243;28;20024;-82
2022/12/22 12:54:48;;;;;;;19.02;9.80;;;10.80;99.90;;;;;;5075876;28;20540;-82
2022/12/22 12:57:26;;;;;;;16.70;9.20;;;10.70;99.90;;;;;;5075216;28;20028;-82
2022/12/22 12:59:54;;;;;;;25.75;10.75;;;10.80;99.90;;;;;;5073312;28;20033;-82
2022/12/22 13:02:25;;;;;;;18.33;10.02;;;10.60;99.90;;;;;;5073621;28;20369;-81
2022/12/22 13:05:03;;;;;;;15.15;10.10;;;10.50;99.90;;;;;;5059983;28;20044;-82
2022/12/22 13:08:02;;;;;;;14.63;10.02;;;10.50;99.90;;;;;;5063757;28;20107;-81
2022/12/22 13:10:28;;;;;;;17.80;10.90;;;10.60;99.90;;;;;;5074546;28;20032;-84
2022/12/22 13:12:54;;;;;;;16.08;10.02;;;10.40;99.90;;;;;;5074567;28;20423;-85
2022/12/22 13:15:28;;;;;;;18.95;10.38;;;10.50;99.90;;;;;;5073876;28;20032;-87
2022/12/22 13:17:54;;;;;;;19.23;10.07;;;10.40;99.90;;;;;;5073429;28;20021;-85
2022/12/22 13:20:24;;;;;;;15.70;10.40;;;10.40;99.90;;;;;;5074733;28;20027;-86
2022/12/22 13:22:58;;;;;;;16.40;9.55;;;10.40;99.90;;;;;;5074713;28;20508;-83
2022/12/22 13:25:37;;;;;;;16.42;7.82;;;10.40;99.90;;;;;;5070928;28;20036;-85
2022/12/22 13:28:04;;;;;;;12.55;7.07;;;10.30;99.90;;;;;;5066995;28;20072;-80
2022/12/22 13:30:30;;;;;;;18.65;8.70;;;10.20;99.90;;;;;;5054059;28;20029;-84
2022/12/22 13:33:00;;;;;;;15.40;7.20;;;10.30;99.90;;;;;;5054783;28;20108;-85
2022/12/22 13:35:35;;;;;;;10.98;6.53;;;10.30;99.90;;;;;;5054149;28;20029;-85
2022/12/22 13:38:01;;;;;;;13.52;6.80;;;10.20;99.90;;;;;;5054834;28;20389;-85
2022/12/22 13:40:29;;;;;;;12.40;6.70;;;10.20;99.90;;;;;;5053797;28;20016;-85
2022/12/22 13:43:10;;;;;;;14.68;6.45;;;10.10;99.90;;;;;;5053157;28;20082;-84
2022/12/22 13:45:42;;;;;;;13.15;6.32;;;10.20;99.90;;;;;;5054568;28;20033;-86
2022/12/22 13:48:31;;;;;;;11.73;6.78;;;10.20;99.90;;;;;;5057104;28;20020;-85
2022/12/22 13:51:00;;;;;;;9.38;6.78;;;10.10;99.90;;;;;;5055397;28;20432;-82
2022/12/22 13:53:42;;;;;;;12.48;6.85;;;9.90;99.90;;;;;;5055589;28;20037;-85
2022/12/22 13:56:13;;;;;;;11.95;6.95;;;9.90;99.90;;;;;;5053129;28;20025;-83
2022/12/22 13:58:44;;;;;;;11.40;7.32;;;9.90;99.90;;;;;;5062558;28;20036;-86
2022/12/22 14:01:09;;;;;;;13.68;6.95;;;10.00;99.90;;;;;;5073020;28;20538;-86
2022/12/22 14:03:48;;;;;;;10.52;7.20;;;10.00;99.90;;;;;;5072533;28;20152;-86
2022/12/22 14:06:28;;;;;;;15.27;7.22;;;10.10;99.90;;;;;;5073620;28;20047;-86
2022/12/22 14:09:14;;;;;;;11.45;7.00;;;10.00;99.90;;;;;;5074029;28;20031;-85
2022/12/22 14:11:49;;;;;;;15.40;7.50;;;10.00;99.90;;;;;;5072055;28;20111;-85
2022/12/22 14:14:19;;;;;;;10.98;6.72;;;9.90;99.90;;;;;;5062149;28;20016;-86
2022/12/22 14:16:47;;;;;;;12.07;6.80;;;9.90;99.90;;;;;;5073363;28;20024;-85
2022/12/22 14:19:15;;;;;;;18.52;7.03;;;9.90;99.90;;;;;;5073545;28;20457;-84
2022/12/22 14:21:43;;;;;;;12.05;7.10;;;10.00;99.90;;;;;;5072052;28;20400;-85
2022/12/22 14:24:16;;;;;;;11.75;7.13;;;10.00;99.90;;;;;;5073403;28;20139;-84
2022/12/22 14:26:42;;;;;;;11.27;6.93;;;10.00;99.90;;;;;;5066703;28;20039;-84
2022/12/22 14:29:17;;;;;;;12.02;6.50;;;10.00;99.90;;;;;;5073072;28;20032;-85
2022/12/22 14:32:01;;;;;;;12.73;7.90;;;10.10;99.90;;;;;;5073640;28;20031;-84
2022/12/22 14:34:33;;;;;;;13.10;8.15;;;10.00;99.90;;;;;;5073049;28;20063;-85
2022/12/22 14:37:01;;;;;;;14.50;7.97;;;10.10;99.90;;;;;;5073186;28;20040;-85
2022/12/22 14:39:32;;;;;;;16.38;8.45;;;10.20;99.90;;;;;;5072928;28;20132;-83
2022/12/22 14:42:03;;;;;;;14.02;7.75;;;10.20;99.90;;;;;;5073125;28;20029;-83
2022/12/22 14:44:44;;;;;;;12.10;8.98;;;10.10;99.90;;;;;;5073713;28;20523;-85
2022/12/22 14:47:13;;;;;;;13.82;8.63;;;10.30;99.90;;;;;;5073655;28;20116;-78
2022/12/22 14:49:50;;;;;;;16.52;9.20;;;10.20;99.90;;;;;;5073330;28;20493;-77
2022/12/22 14:52:21;;;;;;;15.20;9.55;;;10.20;99.90;;;;;;5054776;28;20424;-78
2022/12/22 14:54:52;;;;;;;15.27;8.73;;;10.20;99.90;;;;;;5072753;28;20107;-78
2022/12/22 14:57:38;;;;;;;18.08;10.05;;;10.20;99.90;;;;;;5072456;28;20074;-79
2022/12/22 15:00:07;;;;;;;19.15;10.57;;;10.10;99.90;;;;;;5072520;28;20028;-79
2022/12/22 15:02:36;;;;;;;19.67;10.25;;;10.20;99.90;;;;;;5062078;28;20072;-82
2022/12/22 15:05:14;;;;;;;21.02;10.50;;;10.20;99.90;;;;;;5052272;28;20028;-81
2022/12/22 15:07:46;;;;;;;24.10;11.57;;;10.20;99.90;;;;;;5065507;28;20067;-82
2022/12/22 15:10:12;;;;;;;25.00;11.68;;;10.20;99.90;;;;;;5055476;28;20056;-80
2022/12/22 15:12:39;;;;;;;26.52;12.43;;;10.30;99.90;;;;;;5054597;28;20110;-80
2022/12/22 15:15:18;;;;;;;28.55;12.85;;;10.20;99.90;;;;;;5054140;28;20028;-78
2022/12/22 15:17:50;;;;;;;21.15;11.73;;;10.20;99.90;;;;;;5055365;28;20146;-82
2022/12/22 15:20:19;;;;;;;28.73;13.25;;;10.20;99.90;;;;;;5054567;28;20032;-76
2022/12/22 15:22:45;;;;;;;28.42;12.68;;;10.30;99.90;;;;;;5061704;28;20047;-81
2022/12/22 15:25:17;;;;;;;26.63;12.13;;;10.40;99.90;;;;;;5069689;28;20107;-81
2022/12/22 15:27:43;;;;;;;30.50;12.45;;;10.40;99.90;;;;;;5072494;28;20029;-80
2022/12/22 15:30:12;;;;;;;36.90;12.52;;;10.40;99.90;;;;;;5070560;28;20043;-81
2022/12/22 15:32:39;;;;;;;33.63;13.43;;;10.40;99.90;;;;;;5072257;28;20116;-81
2022/12/22 15:35:19;;;;;;;30.13;12.50;;;10.60;99.90;;;;;;5073016;28;20492;-80
2022/12/22 15:37:45;;;;;;;30.38;12.80;;;10.60;99.90;;;;;;5065384;28;20033;-80
2022/12/22 15:40:14;;;;;;;37.95;13.05;;;10.60;99.90;;;;;;5073923;28;20020;-80
2022/12/22 15:42:40;;;;;;;45.05;14.18;;;10.70;99.90;;;;;;5074839;28;20033;-80
2022/12/22 15:45:06;;;;;;;49.50;14.38;;;10.70;99.90;;;;;;5059641;28;20028;-81
2022/12/22 15:47:31;;;;;;;43.20;13.18;;;10.80;99.90;;;;;;5057626;28;20025;-82
2022/12/22 15:49:58;;;;;;;53.80;15.73;;;10.80;99.90;;;;;;5058026;28;20024;-81
2022/12/22 15:52:24;;;;;;;49.47;14.40;;;10.90;99.90;;;;;;5066724;28;20070;-81
2022/12/22 15:54:50;;;;;;;43.45;13.93;;;10.80;99.90;;;;;;5053984;28;20020;-81
2022/12/22 15:57:16;;;;;;;51.17;15.98;;;10.80;99.90;;;;;;5071013;28;20492;-80
2022/12/22 15:59:41;;;;;;;54.92;13.30;;;10.80;99.90;;;;;;5071576;28;20098;-79
2022/12/22 16:02:11;;;;;;;54.28;14.27;;;10.90;99.90;;;;;;5070054;28;20044;-82
2022/12/22 16:04:37;;;;;;;55.10;14.27;;;10.90;99.90;;;;;;5066191;28;20032;-82
2022/12/22 16:07:03;;;;;;;51.55;14.80;;;10.90;99.90;;;;;;5058699;28;20021;-82
2022/12/22 16:09:37;;;;;;;51.28;15.52;;;10.90;99.90;;;;;;5055009;28;20063;-81
2022/12/22 16:12:25;;;;;;;56.40;14.30;;;11.00;99.90;;;;;;5059326;28;20036;-81
2022/12/22 16:14:56;;;;;;;49.97;13.70;;;11.00;99.90;;;;;;5057308;28;20029;-80
2022/12/22 16:17:26;;;;;;;46.83;14.50;;;10.90;99.90;;;;;;5049626;28;20021;-81
2022/12/22 16:19:52;;;;;;;51.75;15.90;;;10.90;99.90;;;;;;5069150;28;20025;-80
2022/12/22 16:22:31;;;;;;;54.42;14.77;;;10.90;99.90;;;;;;5070523;28;20491;-79
2022/12/22 16:24:57;;;;;;;55.55;15.88;;;11.00;99.90;;;;;;5072657;28;20051;-81
2022/12/22 16:27:22;;;;;;;59.17;16.73;;;11.00;99.90;;;;;;5073622;28;20469;-82
2022/12/22 16:29:51;;;;;;;66.25;15.82;;;11.00;99.90;;;;;;5065058;28;20521;-82